Date,TemperatureHighF,TemperatureAvgF,TemperatureLowF,DewpointHighF,DewpointAvgF,DewpointLowF,HumidityHigh,HumidityAvg,HumidityLow,PressureMaxIn,PressureMinIn,WindSpeedMaxMPH,WindSpeedAvgMPH,GustSpeedMaxMPH,PrecipitationSumIn
2013-1-1,49.7,42.0,35.4,43.4,37.0,31.3,97,83,62,30.33,30.22,3,0,6,0.00
2013-1-2,51.1,41.3,33.2,43.5,34.8,29.8,89,78,61,30.23,30.10,1,0,6,0.00
2013-1-3,52.9,47.5,36.7,46.1,42.6,33.0,97,84,62,30.30,30.07,4,1,8,0.11
2013-1-4,49.9,46.4,43.1,47.7,45.1,42.0,98,95,91,30.30,30.15,2,0,8,0.01
2013-1-5,47.5,45.2,42.9,45.9,44.1,42.4,98,96,90,30.20,30.13,2,0,4,0.03
2013-1-6,48.8,44.0,40.7,45.2,42.6,40.2,99,95,78,30.24,30.16,2,0,5,0.04
2013-1-7,49.0,48.7,48.3,48.7,48.3,47.8,99,98,98,30.25,30.22,0,0,3,0.12
2013-1-9,44.2,43.3,42.1,42.0,40.5,38.1,97,90,79,30.02,30.01,2,0,3,0.49
2013-1-10,39.3,36.8,33.6,38.6,36.1,33.1,98,97,96,30.23,30.16,7,1,14,0.71
2013-1-11,41.5,35.7,30.9,39.9,35.0,30.1,99,97,91,30.32,30.19,3,0,4,0.14
2013-1-12,40.3,35.2,29.8,35.5,32.0,28.3,95,88,77,30.37,30.28,1,0,3,0.00
2013-1-13,39.1,33.4,27.4,31.2,29.1,26.4,96,85,64,30.44,30.39,3,1,5,0.01
2013-1-14,40.9,31.6,27.1,32.9,28.8,25.5,95,90,73,30.53,30.50,1,0,5,0.00
2013-1-15,48.3,42.5,35.4,38.4,35.9,32.7,94,78,67,30.57,30.51,4,2,9,0.01
2013-1-16,54.5,47.4,39.8,43.2,38.1,33.9,83,71,58,30.40,30.35,1,0,3,0.00
2013-1-17,60.6,48.5,37.7,48.3,39.9,31.9,94,73,52,30.35,30.19,2,0,3,0.00
2013-1-18,51.4,43.3,35.2,43.7,39.6,33.9,97,88,74,30.22,30.19,2,0,3,0.00
2013-1-19,50.4,39.4,31.3,44.5,37.0,30.5,98,92,71,30.29,30.24,2,0,3,0.01
2013-1-20,52.4,39.5,29.9,44.7,36.1,29.2,98,88,59,30.28,30.17,1,0,3,0.01
2013-1-21,39.0,38.3,37.5,33.7,32.5,31.8,81,79,78,30.17,30.17,1,0,2,0.00
2013-1-22,58.1,49.6,38.5,45.3,40.5,30.8,86,72,51,30.00,29.90,2,0,3,0.00
2013-1-23,44.9,43.6,40.2,44.3,43.0,39.7,98,98,97,30.17,29.90,4,0,8,0.73
2013-1-24,56.3,47.4,33.5,51.7,45.6,33.0,99,94,84,30.18,30.11,2,0,4,0.06
2013-1-25,51.0,46.5,40.3,50.7,45.9,39.8,99,98,96,30.11,30.02,1,0,4,0.27
2013-1-26,44.4,42.1,41.1,43.9,41.5,40.3,98,98,97,30.06,30.05,1,0,4,0.20
2013-1-28,45.2,43.6,41.8,44.4,43.0,41.5,99,98,96,30.38,30.30,2,0,8,0.24
2013-1-29,46.0,42.8,40.3,45.5,42.4,39.8,99,98,97,30.55,30.38,1,0,6,0.23
2013-1-30,49.3,45.7,40.2,48.0,44.9,39.7,99,97,93,30.57,30.46,3,1,6,0.01
2013-1-31,51.7,44.8,39.9,45.8,42.6,39.3,99,92,78,30.46,30.32,4,1,8,0.01
2013-2-1,61.5,53.1,44.6,50.2,45.5,41.3,88,76,63,30.25,30.16,2,0,8,0.00
2013-2-2,53.2,48.1,44.5,47.7,45.3,41.2,96,90,76,30.35,30.22,4,1,8,0.00
2013-2-3,49.7,46.1,42.1,44.4,43.4,40.5,98,90,78,30.35,30.22,3,0,6,0.00
2013-2-4,42.1,40.4,38.7,41.3,39.9,38.2,98,98,98,30.16,30.14,0,0,6,0.00
2013-2-5,52.6,47.2,43.1,47.7,44.8,41.8,98,92,78,30.14,30.02,3,1,5,0.22
2013-2-6,51.0,44.2,37.2,44.9,41.7,36.2,97,91,74,30.16,29.92,4,1,8,0.38
2013-2-7,38.8,36.8,35.1,38.0,36.1,34.3,98,97,96,30.10,30.01,3,0,7,0.38
2013-2-8,43.2,39.9,36.6,39.7,38.3,36.1,98,94,87,30.28,30.26,4,3,7,0.00
2013-2-11,51.0,48.8,43.4,42.1,41.1,40.7,95,75,68,30.44,30.39,5,3,12,0.00
2013-2-12,52.2,48.0,44.4,49.2,46.7,43.9,98,95,88,30.54,30.48,3,1,11,0.04
2013-2-13,53.1,50.8,45.4,48.0,47.2,45.1,99,88,81,30.52,30.47,4,2,7,0.01
2013-2-20,44.1,41.3,38.9,41.4,39.8,38.1,98,94,85,30.18,30.09,5,0,8,0.17
2013-2-21,46.2,43.0,38.2,43.2,40.9,37.7,98,92,87,30.30,30.25,1,0,8,0.04
2013-2-22,48.8,43.8,38.3,44.5,41.8,37.4,97,93,83,30.28,30.06,4,1,8,0.41
2013-2-23,45.9,39.3,35.1,42.3,37.4,34.3,98,93,73,30.48,30.23,7,1,12,0.32
2013-2-24,53.6,40.5,30.3,40.6,35.5,29.3,98,84,45,30.48,30.20,3,0,6,0.01
2013-2-25,46.4,41.1,36.3,42.3,38.7,35.0,96,92,75,30.43,30.37,1,0,6,0.30
2013-2-26,49.0,41.0,31.5,39.0,36.7,30.7,98,85,63,30.36,30.28,3,0,6,0.01
2013-2-27,56.3,51.0,44.8,49.9,46.8,39.9,97,86,67,30.32,30.25,3,0,5,0.12
2013-2-28,54.4,52.7,49.7,53.4,51.7,49.2,98,96,92,30.50,30.34,1,0,5,0.16
2013-3-1,49.1,48.5,47.4,48.6,48.0,46.9,98,98,98,30.50,30.43,2,0,4,0.00
2013-3-4,52.9,44.0,40.2,40.6,38.2,33.2,90,81,61,29.99,29.89,2,0,8,0.00
2013-3-5,47.9,42.7,40.6,42.2,39.8,32.0,97,90,57,29.90,29.61,3,1,8,1.07
2013-3-6,46.0,42.2,40.1,43.8,40.9,39.1,98,95,90,29.99,29.57,2,1,5,0.36
2013-3-7,52.7,44.0,37.1,42.5,39.0,35.8,96,83,61,30.02,29.99,5,1,10,0.01
2013-3-8,52.6,45.3,35.7,43.2,41.0,35.2,98,86,68,30.23,30.04,7,3,10,0.01
2013-3-9,61.0,54.8,42.5,44.9,43.5,40.3,93,67,51,30.43,30.40,6,3,10,0.00
2013-3-10,60.0,57.5,52.2,44.5,39.6,34.9,72,52,39,30.47,30.43,5,3,13,0.00
2013-3-11,62.0,54.4,47.5,52.6,49.0,46.0,97,83,69,30.34,30.25,7,3,11,0.00
2013-3-12,49.9,48.5,47.0,49.4,47.9,45.9,98,98,96,30.26,30.24,1,0,5,0.00
2013-3-13,62.1,49.5,43.4,52.7,46.6,42.6,98,91,62,30.25,30.14,3,0,7,0.00
2013-3-14,60.6,53.3,43.9,48.7,47.9,43.4,98,82,64,30.24,30.12,2,0,5,0.01
2013-3-15,61.0,53.4,46.9,53.7,49.4,46.1,97,87,74,30.24,30.21,5,2,7,0.00
2013-3-16,48.7,47.7,46.4,47.5,46.4,45.5,97,95,92,30.22,30.16,2,1,4,0.20
2013-3-17,50.7,44.9,39.5,38.6,36.6,34.2,88,73,59,30.32,30.28,6,2,11,0.02
2013-3-18,59.6,50.7,36.2,44.1,40.8,34.0,92,71,46,30.28,30.07,5,2,11,0.00
2013-3-19,55.3,50.1,43.3,49.3,46.1,41.1,96,87,68,30.08,29.72,4,1,11,0.26
2013-3-20,52.4,46.8,38.9,50.0,45.2,37.6,97,94,86,30.25,29.69,4,2,13,0.08
2013-3-21,37.3,36.9,36.2,36.3,36.0,35.4,98,96,96,30.40,30.33,0,0,11,0.09
2013-3-22,48.2,41.7,35.1,38.9,35.3,32.2,98,79,58,30.41,30.36,8,3,12,0.08
2013-3-23,52.4,42.9,33.8,38.2,36.2,33.0,97,78,51,30.35,30.23,7,2,11,0.00
2013-3-24,54.9,42.9,34.5,41.3,37.1,33.2,96,81,56,30.25,30.07,5,1,9,0.00
2013-3-25,51.9,43.8,36.0,45.1,40.8,35.0,97,89,74,30.07,29.98,3,0,7,0.00
2013-3-26,43.7,43.7,43.7,42.6,42.6,42.6,96,96,96,30.02,30.02,0,0,7,0.00
2013-3-27,60.3,53.4,47.3,51.4,48.5,45.7,96,84,65,29.99,29.92,3,1,6,0.02
2013-3-28,54.7,51.7,46.7,50.3,49.0,46.2,98,91,85,30.06,29.98,2,1,5,0.01
2013-3-29,70.1,60.6,49.2,55.6,51.7,47.7,96,74,52,30.14,30.10,5,2,8,0.03
2013-3-30,78.0,64.1,48.2,57.9,52.4,47.4,97,68,44,30.09,29.96,4,1,7,0.00
2013-3-31,58.5,53.6,51.1,53.2,51.0,49.2,96,91,81,30.06,29.97,2,0,6,0.00
2013-4-1,55.2,50.9,48.8,52.6,49.6,47.7,98,95,86,30.21,30.05,3,0,6,0.04
2013-4-2,64.7,54.2,46.7,54.9,49.6,45.7,98,85,64,30.23,30.14,4,1,7,0.00
2013-4-3,63.2,54.6,45.8,55.3,50.3,45.2,98,86,73,30.17,29.91,3,1,6,0.03
2013-4-4,55.5,51.7,50.3,54.0,51.1,49.8,98,98,92,29.95,29.73,2,0,5,0.80
2013-4-5,54.2,50.6,49.5,51.4,49.7,49.0,98,97,89,30.03,29.91,2,0,6,0.13
2013-4-6,56.0,52.0,47.7,50.3,48.3,46.3,97,88,75,30.07,29.88,3,1,8,0.18
2013-4-7,52.4,43.9,39.3,50.1,41.7,38.5,97,92,77,30.06,29.82,5,1,15,0.80
2013-4-8,43.7,39.5,38.0,43.2,39.0,37.2,98,98,97,30.22,30.06,1,0,15,0.14
2013-4-10,51.2,49.7,47.1,50.7,48.9,46.3,98,97,97,30.32,30.29,2,0,5,0.06
2013-4-14,49.7,44.2,39.1,42.1,40.0,37.8,95,85,73,30.02,29.98,4,1,8,0.04
2013-4-15,50.3,44.8,39.1,41.0,39.3,37.2,97,82,66,30.23,30.01,8,4,11,0.21
2013-4-16,53.7,48.4,38.8,44.5,42.3,37.2,97,80,64,30.36,30.24,9,4,12,0.01
2013-4-17,54.8,50.6,44.5,44.0,42.1,41.0,92,73,64,30.51,30.48,4,2,7,0.00
2013-4-18,60.9,53.1,44.9,47.8,45.0,41.6,93,75,58,30.48,30.39,7,3,10,0.00
2013-4-19,52.1,50.3,47.0,51.0,49.3,45.4,98,96,94,30.39,30.34,2,1,8,0.15
2013-4-20,57.7,49.3,43.8,50.0,46.1,42.1,98,89,74,30.37,30.28,8,2,12,0.03
2013-4-21,64.2,50.7,44.2,50.9,45.3,41.5,94,83,60,30.33,30.24,8,2,10,0.00
2013-4-22,68.7,61.7,46.8,45.6,41.5,36.6,95,49,33,30.28,30.19,8,5,12,0.00
2013-4-23,69.8,58.8,44.3,42.1,36.2,22.3,90,47,17,30.24,30.11,9,4,14,0.00
2013-4-24,43.2,42.1,41.7,41.3,40.4,40.1,94,94,93,30.14,30.11,0,0,13,0.00
2013-5-5,52.2,51.7,51.4,49.5,49.3,49.0,92,91,90,29.84,29.83,0,0,0,0.03
2013-5-6,68.8,56.8,47.8,53.9,49.9,46.7,97,80,48,29.98,29.84,4,1,8,0.00
2013-5-7,62.9,52.7,48.9,54.4,49.6,47.8,96,89,72,30.08,29.95,4,1,9,0.00
2013-5-8,66.0,54.0,48.3,54.3,49.3,46.1,98,85,61,30.19,30.08,4,1,9,0.01
2013-5-9,69.5,58.1,48.5,57.3,51.6,47.1,95,80,64,30.20,30.12,6,2,10,0.00
2013-5-10,48.9,48.9,48.8,47.2,47.1,47.0,94,94,93,30.26,30.25,0,0,0,0.00
2013-5-11,79.1,60.1,46.6,60.0,52.6,45.5,98,79,46,30.27,30.08,7,1,13,0.00
2013-5-12,67.0,58.3,54.3,59.2,54.7,52.8,97,88,73,30.17,30.10,4,1,7,0.01
2013-5-13,62.4,55.5,48.2,56.4,52.0,46.8,97,89,69,30.23,30.09,3,1,8,0.00
2013-5-14,64.0,52.7,43.2,49.9,46.1,42.2,98,80,57,30.23,30.13,7,2,16,0.00
2013-5-15,46.9,46.1,45.5,44.4,44.1,43.4,94,93,91,30.16,30.13,0,0,10,0.00
2013-5-22,47.2,45.7,43.6,46.4,44.9,42.8,98,97,96,30.09,30.07,2,0,10,0.72
2013-5-23,57.7,46.8,42.2,49.0,44.7,41.7,98,93,66,30.09,30.04,3,0,5,0.05
2013-7-5,68.6,59.3,51.4,56.2,52.6,49.6,95,80,63,30.06,29.94,10,4,26,0.00
2013-7-6,69.4,58.7,49.0,57.2,53.1,47.9,97,83,63,29.98,29.88,8,4,19,0.00
2013-7-7,68.9,59.9,54.9,58.6,55.0,52.3,93,84,69,29.99,29.92,8,4,19,0.00
2013-7-8,72.7,63.2,52.3,59.8,55.6,50.6,95,77,63,30.05,29.99,8,3,16,0.00
2013-7-9,74.2,60.0,51.0,62.8,55.2,50.2,98,86,62,30.09,30.03,7,2,12,0.00
2013-7-10,69.3,58.1,50.7,58.3,52.9,48.2,97,84,64,30.09,29.99,8,3,19,0.01
2013-7-11,68.9,57.2,47.7,54.3,49.9,46.6,97,79,56,30.05,29.99,9,3,23,0.00
2013-7-12,67.0,56.6,48.8,52.2,49.1,47.4,97,78,52,30.10,30.02,9,3,21,0.00
2013-7-13,58.7,49.0,45.8,52.2,47.1,44.4,97,93,79,30.10,30.08,4,0,7,0.00
2013-7-14,71.6,58.1,47.3,58.8,51.3,46.5,98,80,54,30.07,29.98,9,2,18,0.00
2013-7-15,71.1,58.4,47.6,57.5,51.9,46.8,97,81,60,30.01,29.82,7,2,14,0.00
2013-7-16,61.1,55.2,50.2,56.9,52.7,48.8,97,92,84,30.07,29.83,2,0,10,0.00
2013-7-17,69.6,58.8,51.5,57.8,53.6,49.2,95,84,64,30.18,30.07,6,2,14,0.00
2013-7-18,72.4,57.8,47.6,59.7,52.0,46.5,97,82,64,30.19,30.12,9,3,17,0.01
2013-7-19,68.9,57.2,51.2,58.3,52.8,49.7,96,86,68,30.15,30.07,9,3,20,0.00
2013-7-20,54.2,54.0,53.9,51.9,51.9,51.7,93,92,92,30.10,30.09,3,2,7,0.00
2013-7-21,72.4,59.5,51.6,60.3,54.5,50.8,98,85,61,29.98,29.89,7,2,14,0.00
2013-7-22,75.1,60.1,51.7,62.5,55.2,50.1,98,85,62,30.00,29.94,6,2,13,0.01
2013-7-23,74.8,57.9,49.3,60.8,53.1,48.5,98,86,59,30.07,29.98,5,1,11,0.00
2013-7-24,71.1,56.4,48.7,58.9,51.9,47.9,98,86,64,30.06,30.00,4,1,11,0.00
2013-7-25,77.1,59.2,48.1,60.5,52.5,47.3,98,81,52,30.06,29.99,6,1,13,0.00
2013-7-26,73.2,57.7,48.1,57.2,51.2,47.0,97,81,55,30.16,30.05,7,2,14,0.00
2013-7-27,70.5,57.6,48.6,56.4,51.3,47.2,97,81,59,30.17,30.04,8,3,19,0.00
2013-7-28,68.3,57.4,48.6,56.1,51.6,47.5,97,82,63,30.07,29.97,9,3,18,0.00
2013-7-29,68.1,57.2,47.9,56.3,52.0,46.8,98,84,64,30.09,29.97,7,2,15,0.01
2013-7-30,67.6,58.3,54.1,56.9,53.2,50.9,94,84,67,30.16,30.09,6,2,13,0.00
2013-7-31,60.7,57.3,55.0,56.5,54.9,52.8,96,92,85,30.15,30.11,4,1,9,0.01
2013-8-1,65.8,58.5,55.0,57.4,55.5,53.1,97,90,72,30.16,30.10,2,0,8,0.04
2013-8-2,71.4,60.8,53.7,58.3,55.1,51.8,97,83,61,30.15,30.06,8,2,16,0.00
2013-8-3,73.8,59.3,50.2,61.6,54.7,49.4,98,86,64,30.09,29.99,8,2,17,0.00
2013-8-4,71.7,58.6,53.0,61.6,55.2,52.2,98,89,68,30.02,29.97,5,2,11,0.00
2013-8-5,72.6,58.4,51.0,61.0,54.4,49.7,98,88,66,30.03,29.95,4,1,10,0.01
2013-8-6,69.5,56.4,49.4,59.0,52.3,48.6,98,87,65,30.04,29.97,3,1,11,0.00
2013-8-7,57.5,53.2,51.5,54.3,51.5,50.4,97,94,88,30.10,30.02,2,0,7,0.00
2013-8-8,71.5,59.6,51.8,61.5,55.6,51.0,98,87,69,30.11,29.97,6,2,14,0.01
2013-8-9,75.1,59.6,53.2,63.0,56.1,52.4,98,89,64,30.00,29.89,7,1,14,0.21
2013-8-10,61.8,57.8,55.7,58.8,56.4,55.1,98,95,87,30.08,29.98,3,0,7,0.05
2013-8-11,69.1,59.2,54.1,59.8,55.9,52.8,98,89,71,30.08,30.03,6,1,13,0.02
2013-8-12,71.0,59.0,50.4,59.1,53.7,49.6,98,84,64,30.10,30.05,7,2,16,0.01
2013-8-13,78.3,61.2,49.2,61.2,53.9,48.1,98,79,53,30.10,29.98,5,1,15,0.00
2013-8-14,78.7,63.8,51.5,64.2,56.7,50.1,97,80,44,30.02,29.95,4,1,10,0.00
2013-8-15,75.9,65.9,62.0,66.6,62.4,60.4,95,89,73,29.99,29.93,4,1,10,0.00
2013-8-16,76.2,66.0,58.9,64.1,60.2,56.2,96,83,59,30.07,29.96,4,0,11,0.00
2013-8-17,58.7,57.4,56.2,56.2,55.3,54.3,94,93,91,30.07,30.05,0,0,0,0.00
2013-8-19,77.5,63.0,54.4,64.0,57.6,53.6,98,84,55,30.10,30.03,9,3,17,0.01
2013-8-20,76.3,62.7,51.5,58.7,53.8,50.4,98,76,46,30.07,29.93,8,3,17,0.00
2013-8-21,79.1,61.3,49.3,59.9,53.2,48.2,97,78,47,29.96,29.87,5,1,11,0.00
2013-8-22,62.7,57.5,54.7,57.5,54.9,53.0,96,91,82,29.97,29.92,3,0,7,0.00
2013-8-23,68.6,59.6,55.7,59.5,56.6,54.3,97,90,71,29.98,29.92,4,0,8,0.00
2013-8-24,70.1,60.7,53.3,60.5,55.6,52.5,98,85,59,29.93,29.87,7,2,15,0.01
2013-8-25,64.1,56.7,52.2,59.2,54.7,51.2,98,93,82,29.96,29.89,2,0,7,0.05
2013-8-26,76.0,61.8,48.2,57.7,53.2,47.5,98,77,42,29.96,29.93,3,1,18,0.00
2013-8-27,73.2,62.7,58.1,59.5,56.8,54.3,88,82,61,29.96,29.86,2,0,7,0.00
2013-8-28,73.8,64.7,57.9,63.1,60.1,56.8,97,86,68,29.90,29.82,6,1,12,0.00
2013-8-29,75.8,65.7,60.0,66.8,62.1,58.7,98,89,68,30.09,29.85,3,0,11,0.17
2013-8-30,77.1,66.5,57.2,65.9,62.0,56.1,98,87,63,30.12,30.03,6,1,13,0.03
2013-8-31,68.9,59.2,53.3,61.0,56.6,52.5,98,91,75,30.03,29.92,4,1,11,0.00
2013-9-1,80.0,64.6,53.6,62.1,57.1,52.9,98,80,46,29.95,29.82,4,1,13,0.01
2013-9-2,76.9,66.0,57.9,61.8,59.2,55.0,97,80,49,29.94,29.87,3,1,11,0.02
2013-9-3,73.2,60.5,54.8,59.8,55.6,53.1,96,85,59,29.99,29.94,2,0,8,0.00
2013-9-6,72.5,62.2,56.6,61.1,58.0,54.9,98,87,67,30.19,30.07,8,2,18,0.04
2013-9-7,76.2,61.4,51.5,63.3,57.2,50.7,98,87,63,30.07,29.93,6,2,13,0.00
2013-9-8,77.9,63.4,54.6,65.9,59.1,53.8,98,87,65,30.02,29.93,7,2,15,0.01
2013-9-9,79.3,63.1,55.1,66.3,58.7,54.5,99,87,63,29.98,29.86,6,2,14,0.01
2013-9-10,83.7,63.6,51.9,67.9,57.8,51.1,98,84,56,29.87,29.72,5,1,10,0.00
2013-9-11,72.0,58.7,53.1,62.8,56.0,52.4,98,92,71,29.95,29.85,5,2,11,0.00
2013-9-12,65.2,60.3,57.6,59.9,57.9,56.5,97,92,82,30.00,29.97,4,1,9,0.01
2013-9-13,69.5,60.3,56.0,62.0,57.9,55.4,98,92,76,29.99,29.86,6,2,10,0.03
2013-9-14,58.6,57.9,57.5,57.6,57.1,56.7,97,97,96,29.87,29.84,1,1,4,0.00
2013-9-21,63.4,56.9,52.6,57.6,54.5,51.5,98,92,76,29.86,29.68,2,0,11,0.36
2013-9-22,61.3,56.6,52.5,58.1,53.8,51.2,97,91,77,29.94,29.77,4,1,12,0.21
2013-9-23,64.4,57.9,54.7,58.4,54.9,53.3,97,90,74,30.03,29.94,3,0,7,0.08
2013-9-24,61.0,55.0,48.6,55.2,52.3,47.8,98,91,68,30.01,29.94,2,0,12,0.04
2013-9-25,59.0,50.1,45.6,51.4,47.2,44.8,98,90,68,30.08,29.93,6,1,14,0.02
2013-9-26,46.2,43.0,40.0,45.1,42.2,39.2,98,97,95,30.12,30.08,2,0,4,0.01
2013-9-29,60.2,55.4,52.0,59.6,54.7,51.5,98,97,93,29.81,29.61,4,1,20,0.01
2013-9-30,61.0,54.0,48.1,54.7,50.8,47.3,98,89,68,30.06,29.78,2,0,11,0.01
2013-10-1,61.2,51.8,46.7,53.7,49.1,44.7,98,91,70,30.21,30.05,3,0,12,0.01
2013-10-2,59.7,47.2,36.5,50.8,44.4,35.7,98,91,63,30.23,30.13,2,0,14,0.14
2013-10-3,60.7,49.5,41.9,49.0,44.8,41.4,98,85,58,30.37,30.23,6,1,12,0.01
2013-10-4,72.7,55.1,43.9,52.1,45.2,39.6,93,73,32,30.37,30.26,4,1,9,0.00
2013-10-5,76.7,59.7,46.4,53.0,45.0,39.0,92,62,30,30.26,30.11,2,0,8,0.00
2013-10-6,76.1,58.2,47.1,55.8,47.4,35.1,95,72,23,30.11,30.02,3,0,9,0.00
2013-10-7,61.1,53.9,48.5,54.8,50.3,45.7,98,88,59,30.20,30.05,6,1,13,0.20
2013-10-8,53.9,49.0,45.6,51.8,48.0,44.8,98,96,92,30.20,30.03,5,0,11,0.11
2013-10-9,58.9,48.1,38.4,48.4,44.1,37.6,98,87,57,30.03,29.97,7,1,15,0.01
2013-10-10,63.1,50.9,43.0,50.9,46.7,41.6,97,87,46,30.10,29.97,6,1,12,0.00
2013-10-11,58.3,52.0,47.9,50.9,47.0,44.8,96,84,66,30.13,30.09,5,1,12,0.00
2013-10-12,56.8,49.2,45.5,52.8,47.3,44.2,97,93,81,30.14,30.07,4,0,10,0.17
2013-10-13,61.5,49.1,39.8,51.0,45.7,39.1,98,89,64,30.25,30.14,5,1,14,0.01
2013-10-14,51.0,47.3,45.8,46.0,44.6,43.7,94,90,83,30.27,30.24,2,0,7,0.00
2013-10-15,71.6,55.2,44.3,49.5,44.5,39.1,94,70,32,30.21,30.07,4,1,10,0.00
2013-10-16,67.2,52.2,42.8,53.5,47.1,41.2,97,84,60,30.14,30.05,3,0,7,0.00
2013-10-17,67.0,52.1,45.4,56.3,49.3,44.9,98,91,67,30.16,30.09,4,0,8,0.00
2013-10-18,73.7,53.4,39.7,59.7,49.5,38.9,98,88,59,30.09,30.02,2,0,5,0.02
2013-10-19,67.8,53.2,43.6,56.4,50.0,42.8,98,90,65,30.13,30.06,3,0,7,0.00
2013-10-20,65.7,50.6,45.2,57.8,48.7,44.7,98,94,73,30.12,30.03,2,0,5,0.01
2013-10-21,65.5,49.5,40.9,57.4,47.6,40.1,99,94,75,30.04,29.96,2,0,5,0.01
2013-10-22,51.9,48.9,46.8,50.9,48.4,46.3,98,98,96,30.04,30.00,2,0,5,0.02
2013-10-23,51.4,48.4,45.7,50.7,47.9,45.2,99,98,96,30.03,29.98,2,0,7,0.02
2013-10-24,51.3,48.7,46.0,50.8,48.2,45.7,99,98,98,30.12,30.00,2,0,5,0.02
2013-10-25,51.7,49.7,48.4,50.8,49.2,48.1,99,98,96,30.22,30.12,2,0,5,0.02
2013-10-26,61.9,50.8,45.8,55.0,48.9,45.3,99,94,78,30.21,30.16,6,1,12,0.00
2013-10-27,52.8,49.2,46.8,51.3,47.8,46.0,98,95,89,30.17,29.84,7,1,19,0.07
2013-10-28,57.7,48.7,43.1,47.9,44.4,39.8,98,86,62,29.86,29.75,5,1,11,0.00
2013-10-29,57.8,45.1,35.3,47.6,40.7,33.7,97,85,66,30.08,29.86,2,0,6,0.00
2013-10-30,58.2,45.4,34.8,46.0,40.0,33.8,98,83,53,30.21,30.07,2,0,7,0.01
2013-10-31,61.5,52.3,45.2,55.2,49.1,43.0,97,89,67,30.25,30.20,3,0,8,0.00
2013-11-1,66.0,54.1,47.6,58.3,51.9,47.1,99,93,69,30.23,29.95,2,0,8,0.01
2013-11-2,52.3,50.2,48.8,50.6,48.9,46.3,98,95,85,30.15,29.89,4,1,15,0.40
2013-11-3,51.2,45.0,40.2,46.7,43.1,39.4,98,93,78,30.25,30.19,4,0,10,0.02
2013-11-4,49.7,45.1,37.7,48.7,44.1,36.9,98,96,89,30.22,30.17,1,0,4,0.02
2013-11-5,55.8,52.6,49.1,55.1,52.0,48.3,99,98,96,30.27,30.15,1,0,5,0.00
2013-11-6,56.2,53.7,52.0,55.9,53.3,51.5,99,99,98,30.28,30.24,0,0,2,0.00
2013-11-7,54.1,50.4,45.4,53.7,49.9,44.9,99,98,96,30.20,30.03,2,0,11,0.07
2013-11-8,54.7,46.8,42.0,50.1,45.3,41.6,99,95,77,30.22,30.10,2,0,8,0.00
2013-11-9,58.0,48.5,41.0,51.2,45.1,39.4,96,88,67,30.08,29.99,1,0,4,0.00
2013-11-10,60.4,49.8,44.7,53.2,47.5,43.4,98,92,76,30.07,29.99,2,0,7,0.00
2013-11-11,60.9,52.2,44.2,56.9,50.0,43.7,98,92,80,30.07,29.98,2,0,5,0.00
2013-11-12,59.3,55.1,52.4,57.3,53.5,48.7,98,95,69,30.42,30.04,3,0,9,0.00
2013-11-13,59.0,51.1,42.7,53.4,48.8,41.6,99,92,75,30.43,30.25,5,1,11,0.00
2013-11-14,49.8,44.8,38.8,47.7,43.9,38.3,99,97,88,30.27,30.11,1,0,4,0.00
2013-11-15,50.2,45.4,41.9,46.6,44.0,41.4,99,95,85,30.11,29.80,2,0,6,0.01
2013-11-16,52.1,47.8,43.9,49.6,46.4,43.1,98,95,81,29.95,29.75,2,0,9,0.03
2013-11-17,55.0,48.1,44.4,48.5,45.2,43.2,98,90,74,30.08,29.96,2,0,7,0.00
2013-11-18,54.2,49.0,43.8,51.5,47.0,42.3,98,93,79,30.03,29.81,3,1,10,0.02
2013-11-19,55.0,50.1,40.6,54.4,49.4,38.5,98,97,90,29.96,29.80,5,2,12,0.02
2013-11-20,45.8,39.5,32.3,39.3,35.8,30.5,97,87,73,30.25,29.96,6,2,14,0.00
2013-11-21,49.5,37.9,29.5,30.5,27.4,25.2,94,68,40,30.45,30.25,4,1,10,0.00
2013-11-22,59.8,45.6,31.1,34.8,27.3,22.5,83,51,28,30.43,30.22,2,0,7,0.00
2013-11-23,67.9,55.1,46.5,36.0,29.4,23.6,53,38,25,30.21,30.01,2,0,8,0.00
2013-11-24,58.1,46.7,36.7,40.8,36.7,32.3,87,69,47,30.24,30.05,2,0,4,0.00
2013-11-25,54.4,43.7,35.0,44.4,38.7,33.2,96,83,55,30.31,30.24,0,0,0,0.00
2013-11-26,54.4,44.9,35.9,47.3,40.8,34.5,96,86,73,30.26,30.02,0,0,0,0.00
2013-11-27,57.3,47.4,38.5,47.4,42.2,36.4,94,83,62,30.02,29.88,0,0,0,0.00
2013-11-28,59.4,47.4,39.2,49.9,43.8,37.7,97,88,67,30.17,29.94,0,0,0,0.00
2013-11-29,52.9,44.3,34.5,46.7,42.0,33.2,98,92,77,30.34,30.17,2,0,5,0.00
2013-11-30,51.5,45.2,38.6,48.7,44.0,37.8,98,95,89,30.41,30.33,3,0,6,0.00
2013-12-1,54.4,51.1,47.7,54.1,50.5,46.4,99,98,94,30.38,30.18,2,0,8,0.09
2013-12-2,52.3,50.4,44.4,51.8,49.9,43.6,99,98,97,30.18,30.03,7,2,17,0.79
2013-12-3,42.0,35.3,30.5,40.4,34.4,29.6,99,97,90,30.18,30.09,3,0,12,0.12
2013-12-4,37.3,30.2,25.8,29.8,25.1,21.6,97,82,57,30.29,30.19,3,0,8,0.01
2013-12-5,38.4,30.1,23.6,30.4,25.7,21.7,94,84,68,30.26,30.12,2,0,6,0.00
2013-12-6,40.8,35.1,30.8,40.1,33.3,26.1,98,93,71,30.12,29.84,7,1,16,0.37
2013-12-7,30.8,27.6,23.6,28.5,23.0,19.6,94,83,64,30.31,30.00,4,2,13,0.00
2013-12-8,35.8,27.5,21.3,23.0,19.6,13.3,90,73,40,30.56,30.35,4,1,9,0.01
2013-12-9,40.1,30.2,23.0,28.9,23.4,16.9,88,76,61,30.56,30.49,2,0,8,0.00
2013-12-10,44.2,33.7,26.0,35.3,29.9,24.5,95,86,67,30.50,30.33,2,0,5,0.00
2013-12-11,52.5,41.2,33.4,41.1,35.0,30.2,91,79,64,30.33,30.18,2,0,5,0.00
2013-12-12,44.7,38.2,29.9,43.2,36.3,28.4,97,93,83,30.26,30.15,2,0,6,0.41
2013-12-13,51.7,45.6,41.8,49.5,44.7,41.0,98,97,91,30.40,30.26,2,0,4,0.01
2013-12-14,47.2,40.1,34.5,45.8,39.4,33.7,99,97,94,30.46,30.38,2,0,5,0.01
2013-12-15,49.4,40.6,32.1,47.3,39.9,31.6,99,97,91,30.47,30.40,3,0,5,0.01
2013-12-16,53.9,41.5,31.6,48.6,39.4,31.1,99,93,69,30.41,30.16,2,0,4,0.01
2013-12-17,49.9,41.8,35.4,44.4,39.5,34.2,98,92,80,30.22,30.15,3,0,7,0.00
2013-12-18,44.2,39.6,35.2,43.7,39.1,34.7,99,98,90,30.17,30.06,5,1,11,0.01
2013-12-19,41.3,36.0,31.3,34.4,31.3,29.2,94,83,69,30.28,30.14,5,1,11,0.00
2013-12-20,48.2,39.6,31.2,47.7,37.2,29.2,98,91,78,30.23,30.05,2,0,5,0.54
2013-12-21,49.3,47.1,44.4,48.9,46.6,43.9,99,98,96,30.28,30.09,3,0,7,0.16
2013-12-22,55.2,47.4,43.0,52.9,46.6,42.5,99,97,90,30.38,30.28,1,0,4,0.00
2013-12-23,49.4,46.3,42.6,49.1,46.0,42.2,99,99,98,30.50,30.36,3,0,6,0.05
2013-12-24,51.2,43.6,36.2,48.5,42.6,34.9,99,97,87,30.52,30.36,3,1,8,0.01
2013-12-25,50.4,40.5,30.0,46.7,39.1,29.3,98,95,85,30.39,30.30,3,0,6,0.01
2013-12-26,52.9,44.3,37.2,47.6,41.5,35.7,97,90,73,30.31,30.18,1,0,4,0.01
2013-12-27,50.2,42.2,36.9,45.8,41.0,36.2,98,96,80,30.34,30.16,3,0,13,0.00
2013-12-28,47.5,38.5,33.4,42.9,37.5,32.9,99,96,82,30.44,30.34,4,1,9,0.01
2013-12-29,57.3,41.2,30.1,41.8,34.7,29.1,98,80,39,30.38,30.18,3,1,11,0.00
2013-12-30,48.0,42.0,37.3,44.1,38.5,34.6,95,87,81,30.25,30.16,2,0,4,0.00
2013-12-31,52.1,42.8,37.4,44.8,40.2,36.3,97,91,71,30.32,30.24,2,0,5,0.00
2014-1-1,53.0,43.8,35.0,47.2,40.3,33.2,97,87,76,30.30,30.20,2,0,4,0.00
2014-1-2,54.6,46.1,39.8,50.2,43.4,38.5,96,91,80,30.22,30.12,2,0,5,0.00